sensor_id;sensor_type;location;lat;lon;timestamp;P1;durP1;ratioP1;P2;durP2;ratioP2
36475;SDS011;56615;42.682;23.364;2023-02-28T00:01:26;26.92;;;15.73;;
36475;SDS011;56615;42.682;23.364;2023-02-28T00:03:52;21.60;;;13.10;;
36475;SDS011;56615;42.682;23.364;2023-02-28T00:06:17;22.52;;;14.25;;
36475;SDS011;56615;42.682;23.364;2023-02-28T00:08:42;25.33;;;13.93;;
36475;SDS011;56615;42.682;23.364;2023-02-28T00:11:10;25.27;;;14.40;;
36475;SDS011;56615;42.682;23.364;2023-02-28T00:13:37;24.63;;;13.73;;
36475;SDS011;56615;42.682;23.364;2023-02-28T00:16:09;24.42;;;13.63;;
36475;SDS011;56615;42.682;23.364;2023-02-28T00:18:38;22.75;;;13.32;;
36475;SDS011;56615;42.682;23.364;2023-02-28T00:21:04;20.77;;;13.20;;
36475;SDS011;56615;42.682;23.364;2023-02-28T00:23:30;19.73;;;12.98;;
36475;SDS011;56615;42.682;23.364;2023-02-28T00:25:56;22.88;;;13.13;;
36475;SDS011;56615;42.682;23.364;2023-02-28T00:28:21;21.27;;;13.52;;
36475;SDS011;56615;42.682;23.364;2023-02-28T00:30:47;23.58;;;13.98;;
36475;SDS011;56615;42.682;23.364;2023-02-28T00:33:12;22.35;;;14.20;;
36475;SDS011;56615;42.682;23.364;2023-02-28T00:35:39;24.35;;;14.25;;
36475;SDS011;56615;42.682;23.364;2023-02-28T00:38:15;23.70;;;13.82;;
36475;SDS011;56615;42.682;23.364;2023-02-28T00:40:41;24.58;;;15.48;;
36475;SDS011;56615;42.682;23.364;2023-02-28T00:43:06;26.58;;;16.73;;
36475;SDS011;56615;42.682;23.364;2023-02-28T00:45:32;26.23;;;16.23;;
36475;SDS011;56615;42.682;23.364;2023-02-28T00:47:57;27.65;;;16.08;;
36475;SDS011;56615;42.682;23.364;2023-02-28T00:50:22;25.23;;;15.02;;
36475;SDS011;56615;42.682;23.364;2023-02-28T00:52:48;28.88;;;15.48;;
36475;SDS011;56615;42.682;23.364;2023-02-28T00:55:13;30.08;;;17.92;;
36475;SDS011;56615;42.682;23.364;2023-02-28T00:57:39;25.40;;;16.10;;
36475;SDS011;56615;42.682;23.364;2023-02-28T01:00:05;30.23;;;16.83;;
36475;SDS011;56615;42.682;23.364;2023-02-28T01:02:31;28.30;;;16.50;;
36475;SDS011;56615;42.682;23.364;2023-02-28T01:04:56;28.88;;;17.20;;
36475;SDS011;56615;42.682;23.364;2023-02-28T01:07:22;27.52;;;16.63;;
36475;SDS011;56615;42.682;23.364;2023-02-28T01:09:47;27.65;;;15.52;;
36475;SDS011;56615;42.682;23.364;2023-02-28T01:12:13;27.30;;;16.25;;
36475;SDS011;56615;42.682;23.364;2023-02-28T01:14:38;31.75;;;16.52;;
36475;SDS011;56615;42.682;23.364;2023-02-28T01:17:04;27.13;;;16.83;;
36475;SDS011;56615;42.682;23.364;2023-02-28T01:19:29;25.00;;;15.65;;
36475;SDS011;56615;42.682;23.364;2023-02-28T01:21:54;27.02;;;15.82;;
36475;SDS011;56615;42.682;23.364;2023-02-28T01:24:20;26.10;;;16.40;;
36475;SDS011;56615;42.682;23.364;2023-02-28T01:26:45;28.38;;;15.98;;
36475;SDS011;56615;42.682;23.364;2023-02-28T01:29:10;25.05;;;14.88;;
36475;SDS011;56615;42.682;23.364;2023-02-28T01:31:36;26.77;;;15.10;;
36475;SDS011;56615;42.682;23.364;2023-02-28T01:34:01;25.17;;;15.10;;
36475;SDS011;56615;42.682;23.364;2023-02-28T01:36:27;25.55;;;15.85;;
36475;SDS011;56615;42.682;23.364;2023-02-28T01:38:52;27.65;;;16.08;;
36475;SDS011;56615;42.682;23.364;2023-02-28T01:46:10;25.08;;;15.40;;
36475;SDS011;56615;42.682;23.364;2023-02-28T01:48:37;26.75;;;16.65;;
36475;SDS011;56615;42.682;23.364;2023-02-28T01:51:05;25.17;;;15.73;;
36475;SDS011;56615;42.682;23.364;2023-02-28T01:53:44;27.23;;;16.38;;
36475;SDS011;56615;42.682;23.364;2023-02-28T01:56:12;27.35;;;16.83;;
36475;SDS011;56615;42.682;23.364;2023-02-28T01:58:45;25.88;;;15.57;;
36475;SDS011;56615;42.682;23.364;2023-02-28T02:01:14;26.38;;;16.42;;
36475;SDS011;56615;42.682;23.364;2023-02-28T02:03:47;25.30;;;15.63;;
36475;SDS011;56615;42.682;23.364;2023-02-28T02:06:30;25.63;;;15.43;;
36475;SDS011;56615;42.682;23.364;2023-02-28T02:09:00;26.67;;;15.88;;
36475;SDS011;56615;42.682;23.364;2023-02-28T02:11:26;27.50;;;15.68;;
36475;SDS011;56615;42.682;23.364;2023-02-28T02:22:38;26.88;;;16.58;;
36475;SDS011;56615;42.682;23.364;2023-02-28T02:39:47;32.53;;;18.58;;
36475;SDS011;56615;42.682;23.364;2023-02-28T02:42:27;32.53;;;19.15;;
36475;SDS011;56615;42.682;23.364;2023-02-28T02:45:33;28.65;;;17.58;;
36475;SDS011;56615;42.682;23.364;2023-02-28T02:48:01;32.78;;;19.15;;
36475;SDS011;56615;42.682;23.364;2023-02-28T02:50:29;31.30;;;18.92;;
36475;SDS011;56615;42.682;23.364;2023-02-28T02:52:58;33.53;;;18.98;;
36475;SDS011;56615;42.682;23.364;2023-02-28T02:55:25;30.80;;;19.80;;
36475;SDS011;56615;42.682;23.364;2023-02-28T02:57:55;33.35;;;19.48;;
36475;SDS011;56615;42.682;23.364;2023-02-28T03:02:59;36.17;;;21.13;;
36475;SDS011;56615;42.682;23.364;2023-02-28T03:05:28;40.63;;;20.80;;
36475;SDS011;56615;42.682;23.364;2023-02-28T03:07:56;37.38;;;21.42;;
36475;SDS011;56615;42.682;23.364;2023-02-28T03:10:36;36.53;;;20.42;;
36475;SDS011;56615;42.682;23.364;2023-02-28T03:15:46;37.75;;;21.67;;
36475;SDS011;56615;42.682;23.364;2023-02-28T03:18:40;43.38;;;23.80;;
36475;SDS011;56615;42.682;23.364;2023-02-28T03:21:15;40.85;;;22.30;;
36475;SDS011;56615;42.682;23.364;2023-02-28T03:24:10;44.60;;;23.77;;
36475;SDS011;56615;42.682;23.364;2023-02-28T03:26:39;43.05;;;24.05;;
36475;SDS011;56615;42.682;23.364;2023-02-28T03:29:10;43.83;;;24.52;;
36475;SDS011;56615;42.682;23.364;2023-02-28T03:31:50;44.50;;;24.30;;
36475;SDS011;56615;42.682;23.364;2023-02-28T03:37:04;52.00;;;26.77;;
36475;SDS011;56615;42.682;23.364;2023-02-28T03:39:36;51.13;;;25.17;;
36475;SDS011;56615;42.682;23.364;2023-02-28T03:42:05;51.38;;;26.83;;
36475;SDS011;56615;42.682;23.364;2023-02-28T03:44:35;55.00;;;27.30;;
36475;SDS011;56615;42.682;23.364;2023-02-28T03:47:05;53.20;;;26.25;;
36475;SDS011;56615;42.682;23.364;2023-02-28T03:49:43;51.67;;;26.13;;
36475;SDS011;56615;42.682;23.364;2023-02-28T03:52:12;47.88;;;26.08;;
36475;SDS011;56615;42.682;23.364;2023-02-28T03:54:41;52.85;;;26.73;;
36475;SDS011;56615;42.682;23.364;2023-02-28T03:57:18;53.40;;;27.30;;
36475;SDS011;56615;42.682;23.364;2023-02-28T03:59:47;60.22;;;26.55;;
36475;SDS011;56615;42.682;23.364;2023-02-28T04:02:17;48.55;;;25.20;;
36475;SDS011;56615;42.682;23.364;2023-02-28T04:04:43;54.17;;;25.17;;
36475;SDS011;56615;42.682;23.364;2023-02-28T04:07:10;52.97;;;27.20;;
36475;SDS011;56615;42.682;23.364;2023-02-28T04:09:36;42.78;;;21.90;;
36475;SDS011;56615;42.682;23.364;2023-02-28T04:12:01;38.17;;;20.10;;
36475;SDS011;56615;42.682;23.364;2023-02-28T04:14:27;38.17;;;20.25;;
36475;SDS011;56615;42.682;23.364;2023-02-28T04:16:52;37.38;;;21.00;;
36475;SDS011;56615;42.682;23.364;2023-02-28T04:19:18;51.03;;;22.98;;
36475;SDS011;56615;42.682;23.364;2023-02-28T04:21:45;45.00;;;22.65;;
36475;SDS011;56615;42.682;23.364;2023-02-28T04:24:15;40.92;;;22.92;;
36475;SDS011;56615;42.682;23.364;2023-02-28T04:26:44;53.53;;;21.75;;
36475;SDS011;56615;42.682;23.364;2023-02-28T04:29:11;51.08;;;23.73;;
36475;SDS011;56615;42.682;23.364;2023-02-28T04:31:39;42.17;;;22.60;;
36475;SDS011;56615;42.682;23.364;2023-02-28T04:34:04;45.00;;;24.60;;
36475;SDS011;56615;42.682;23.364;2023-02-28T04:36:30;47.50;;;25.65;;
36475;SDS011;56615;42.682;23.364;2023-02-28T04:38:55;41.60;;;23.60;;
36475;SDS011;56615;42.682;23.364;2023-02-28T04:41:22;49.92;;;24.95;;
36475;SDS011;56615;42.682;23.364;2023-02-28T04:43:48;55.15;;;28.23;;
36475;SDS011;56615;42.682;23.364;2023-02-28T04:46:13;56.85;;;29.58;;
36475;SDS011;56615;42.682;23.364;2023-02-28T04:48:39;59.60;;;29.48;;
36475;SDS011;56615;42.682;23.364;2023-02-28T04:51:09;49.50;;;26.23;;
36475;SDS011;56615;42.682;23.364;2023-02-28T04:53:36;60.90;;;26.25;;
36475;SDS011;56615;42.682;23.364;2023-02-28T04:56:03;51.33;;;24.98;;
36475;SDS011;56615;42.682;23.364;2023-02-28T04:58:28;45.92;;;22.92;;
36475;SDS011;56615;42.682;23.364;2023-02-28T05:00:56;43.58;;;23.20;;
36475;SDS011;56615;42.682;23.364;2023-02-28T05:03:27;48.17;;;23.10;;
36475;SDS011;56615;42.682;23.364;2023-02-28T05:05:52;46.05;;;23.88;;
36475;SDS011;56615;42.682;23.364;2023-02-28T05:08:17;43.28;;;22.13;;
36475;SDS011;56615;42.682;23.364;2023-02-28T05:10:43;51.95;;;24.90;;
36475;SDS011;56615;42.682;23.364;2023-02-28T05:13:10;47.45;;;24.83;;
36475;SDS011;56615;42.682;23.364;2023-02-28T05:15:36;50.08;;;24.88;;
36475;SDS011;56615;42.682;23.364;2023-02-28T05:18:02;53.90;;;27.77;;
36475;SDS011;56615;42.682;23.364;2023-02-28T05:20:27;63.47;;;31.05;;
36475;SDS011;56615;42.682;23.364;2023-02-28T05:22:53;61.90;;;30.85;;
36475;SDS011;56615;42.682;23.364;2023-02-28T05:25:19;65.60;;;31.77;;
36475;SDS011;56615;42.682;23.364;2023-02-28T05:27:46;67.25;;;33.25;;
36475;SDS011;56615;42.682;23.364;2023-02-28T05:30:12;67.93;;;32.40;;
36475;SDS011;56615;42.682;23.364;2023-02-28T05:32:38;72.45;;;35.72;;
36475;SDS011;56615;42.682;23.364;2023-02-28T05:35:04;75.80;;;36.83;;
36475;SDS011;56615;42.682;23.364;2023-02-28T05:37:29;69.13;;;33.95;;
36475;SDS011;56615;42.682;23.364;2023-02-28T05:39:57;67.78;;;32.90;;
36475;SDS011;56615;42.682;23.364;2023-02-28T05:42:22;66.75;;;31.35;;
36475;SDS011;56615;42.682;23.364;2023-02-28T05:44:48;64.70;;;30.50;;
36475;SDS011;56615;42.682;23.364;2023-02-28T05:47:13;63.95;;;30.00;;
36475;SDS011;56615;42.682;23.364;2023-02-28T05:49:40;64.68;;;30.77;;
36475;SDS011;56615;42.682;23.364;2023-02-28T05:52:06;60.53;;;29.88;;
36475;SDS011;56615;42.682;23.364;2023-02-28T05:54:32;61.90;;;31.00;;
36475;SDS011;56615;42.682;23.364;2023-02-28T05:56:57;60.30;;;30.08;;
36475;SDS011;56615;42.682;23.364;2023-02-28T05:59:23;61.35;;;30.08;;
36475;SDS011;56615;42.682;23.364;2023-02-28T06:01:48;63.70;;;31.25;;
36475;SDS011;56615;42.682;23.364;2023-02-28T06:04:14;61.35;;;31.17;;
36475;SDS011;56615;42.682;23.364;2023-02-28T06:06:47;59.55;;;30.35;;
36475;SDS011;56615;42.682;23.364;2023-02-28T06:09:13;59.08;;;30.55;;
36475;SDS011;56615;42.682;23.364;2023-02-28T06:11:39;68.85;;;32.17;;
36475;SDS011;56615;42.682;23.364;2023-02-28T06:14:04;63.17;;;31.98;;
36475;SDS011;56615;42.682;23.364;2023-02-28T06:16:31;67.25;;;33.55;;
36475;SDS011;56615;42.682;23.364;2023-02-28T06:18:58;75.57;;;33.78;;
36475;SDS011;56615;42.682;23.364;2023-02-28T06:21:24;78.40;;;37.10;;
36475;SDS011;56615;42.682;23.364;2023-02-28T06:23:50;80.45;;;36.55;;
36475;SDS011;56615;42.682;23.364;2023-02-28T06:26:16;75.35;;;36.20;;
36475;SDS011;56615;42.682;23.364;2023-02-28T06:28:41;71.20;;;36.63;;
36475;SDS011;56615;42.682;23.364;2023-02-28T06:31:07;81.35;;;39.72;;
36475;SDS011;56615;42.682;23.364;2023-02-28T06:33:35;86.90;;;40.13;;
36475;SDS011;56615;42.682;23.364;2023-02-28T06:36:01;79.53;;;37.83;;
36475;SDS011;56615;42.682;23.364;2023-02-28T06:38:27;80.78;;;38.13;;
36475;SDS011;56615;42.682;23.364;2023-02-28T06:40:53;74.50;;;36.40;;
36475;SDS011;56615;42.682;23.364;2023-02-28T06:43:19;78.40;;;37.20;;
36475;SDS011;56615;42.682;23.364;2023-02-28T06:45:44;67.88;;;32.40;;
36475;SDS011;56615;42.682;23.364;2023-02-28T06:48:10;60.75;;;32.45;;
36475;SDS011;56615;42.682;23.364;2023-02-28T06:50:35;56.67;;;31.88;;
36475;SDS011;56615;42.682;23.364;2023-02-28T06:53:02;51.08;;;29.42;;
36475;SDS011;56615;42.682;23.364;2023-02-28T06:55:27;45.30;;;26.52;;
36475;SDS011;56615;42.682;23.364;2023-02-28T06:57:52;43.85;;;25.27;;
36475;SDS011;56615;42.682;23.364;2023-02-28T07:00:19;41.95;;;25.13;;
36475;SDS011;56615;42.682;23.364;2023-02-28T07:02:45;43.70;;;26.05;;
36475;SDS011;56615;42.682;23.364;2023-02-28T07:05:12;41.15;;;24.33;;
36475;SDS011;56615;42.682;23.364;2023-02-28T07:07:37;43.53;;;26.25;;
36475;SDS011;56615;42.682;23.364;2023-02-28T07:10:05;48.60;;;28.52;;
36475;SDS011;56615;42.682;23.364;2023-02-28T07:12:31;51.60;;;30.90;;
36475;SDS011;56615;42.682;23.364;2023-02-28T07:14:56;51.45;;;30.55;;
36475;SDS011;56615;42.682;23.364;2023-02-28T07:17:22;51.55;;;29.95;;
36475;SDS011;56615;42.682;23.364;2023-02-28T07:19:47;42.55;;;25.27;;
36475;SDS011;56615;42.682;23.364;2023-02-28T07:22:12;43.17;;;25.55;;
36475;SDS011;56615;42.682;23.364;2023-02-28T07:24:38;41.25;;;24.27;;
36475;SDS011;56615;42.682;23.364;2023-02-28T07:27:03;36.65;;;22.65;;
36475;SDS011;56615;42.682;23.364;2023-02-28T07:29:29;41.15;;;23.98;;
36475;SDS011;56615;42.682;23.364;2023-02-28T07:31:54;34.60;;;21.98;;
36475;SDS011;56615;42.682;23.364;2023-02-28T07:34:20;36.65;;;23.05;;
36475;SDS011;56615;42.682;23.364;2023-02-28T07:36:45;36.70;;;21.40;;
36475;SDS011;56615;42.682;23.364;2023-02-28T07:39:11;36.25;;;23.02;;
36475;SDS011;56615;42.682;23.364;2023-02-28T07:41:36;38.15;;;24.67;;
36475;SDS011;56615;42.682;23.364;2023-02-28T07:44:08;40.38;;;25.23;;
36475;SDS011;56615;42.682;23.364;2023-02-28T07:46:37;47.20;;;25.00;;
36475;SDS011;56615;42.682;23.364;2023-02-28T07:49:03;43.78;;;28.85;;
36475;SDS011;56615;42.682;23.364;2023-02-28T07:51:37;50.88;;;30.92;;
36475;SDS011;56615;42.682;23.364;2023-02-28T07:54:02;48.35;;;30.70;;
36475;SDS011;56615;42.682;23.364;2023-02-28T07:56:28;51.03;;;30.30;;
36475;SDS011;56615;42.682;23.364;2023-02-28T07:58:53;51.40;;;31.83;;
36475;SDS011;56615;42.682;23.364;2023-02-28T08:01:19;46.60;;;31.23;;
36475;SDS011;56615;42.682;23.364;2023-02-28T08:03:44;47.08;;;30.65;;
36475;SDS011;56615;42.682;23.364;2023-02-28T08:06:14;51.13;;;30.67;;
36475;SDS011;56615;42.682;23.364;2023-02-28T08:08:42;46.97;;;29.92;;
36475;SDS011;56615;42.682;23.364;2023-02-28T08:11:07;45.30;;;30.45;;
36475;SDS011;56615;42.682;23.364;2023-02-28T08:13:32;45.60;;;29.83;;
36475;SDS011;56615;42.682;23.364;2023-02-28T08:15:58;46.88;;;29.33;;
36475;SDS011;56615;42.682;23.364;2023-02-28T08:18:23;44.28;;;29.02;;
36475;SDS011;56615;42.682;23.364;2023-02-28T08:20:50;44.17;;;26.70;;
36475;SDS011;56615;42.682;23.364;2023-02-28T08:23:15;47.47;;;30.15;;
36475;SDS011;56615;42.682;23.364;2023-02-28T08:25:41;44.78;;;27.17;;
36475;SDS011;56615;42.682;23.364;2023-02-28T08:28:06;45.83;;;28.05;;
36475;SDS011;56615;42.682;23.364;2023-02-28T08:30:31;40.95;;;26.30;;
36475;SDS011;56615;42.682;23.364;2023-02-28T08:32:57;43.17;;;27.23;;
36475;SDS011;56615;42.682;23.364;2023-02-28T08:35:22;42.83;;;27.92;;
36475;SDS011;56615;42.682;23.364;2023-02-28T08:37:48;39.67;;;27.65;;
36475;SDS011;56615;42.682;23.364;2023-02-28T08:40:14;41.55;;;25.65;;
36475;SDS011;56615;42.682;23.364;2023-02-28T08:42:43;42.00;;;26.98;;
36475;SDS011;56615;42.682;23.364;2023-02-28T08:45:10;45.17;;;25.02;;
36475;SDS011;56615;42.682;23.364;2023-02-28T08:47:36;38.10;;;20.50;;
36475;SDS011;56615;42.682;23.364;2023-02-28T08:50:01;33.33;;;19.63;;
36475;SDS011;56615;42.682;23.364;2023-02-28T08:52:26;39.17;;;18.52;;
36475;SDS011;56615;42.682;23.364;2023-02-28T08:54:52;36.63;;;18.80;;
36475;SDS011;56615;42.682;23.364;2023-02-28T08:57:17;30.42;;;17.50;;
36475;SDS011;56615;42.682;23.364;2023-02-28T08:59:43;35.67;;;17.60;;
36475;SDS011;56615;42.682;23.364;2023-02-28T09:02:08;39.40;;;18.98;;
36475;SDS011;56615;42.682;23.364;2023-02-28T09:04:36;29.67;;;16.92;;
36475;SDS011;56615;42.682;23.364;2023-02-28T09:07:01;34.10;;;17.23;;
36475;SDS011;56615;42.682;23.364;2023-02-28T09:09:27;33.85;;;16.98;;
36475;SDS011;56615;42.682;23.364;2023-02-28T09:11:54;30.42;;;16.45;;
36475;SDS011;56615;42.682;23.364;2023-02-28T09:14:20;31.45;;;16.77;;
36475;SDS011;56615;42.682;23.364;2023-02-28T09:16:46;28.23;;;15.63;;
36475;SDS011;56615;42.682;23.364;2023-02-28T09:19:11;31.35;;;16.75;;
36475;SDS011;56615;42.682;23.364;2023-02-28T09:21:37;32.75;;;18.23;;
36475;SDS011;56615;42.682;23.364;2023-02-28T09:24:02;31.63;;;16.45;;
36475;SDS011;56615;42.682;23.364;2023-02-28T09:26:28;30.20;;;15.75;;
36475;SDS011;56615;42.682;23.364;2023-02-28T09:28:54;31.40;;;15.63;;
36475;SDS011;56615;42.682;23.364;2023-02-28T09:31:22;25.48;;;14.88;;
36475;SDS011;56615;42.682;23.364;2023-02-28T09:33:50;30.13;;;15.10;;
36475;SDS011;56615;42.682;23.364;2023-02-28T09:36:16;31.27;;;15.55;;
36475;SDS011;56615;42.682;23.364;2023-02-28T09:38:42;27.77;;;15.88;;
36475;SDS011;56615;42.682;23.364;2023-02-28T09:41:18;27.27;;;15.43;;
36475;SDS011;56615;42.682;23.364;2023-02-28T09:43:47;26.52;;;16.25;;
36475;SDS011;56615;42.682;23.364;2023-02-28T09:46:29;27.30;;;15.70;;
36475;SDS011;56615;42.682;23.364;2023-02-28T09:49:06;28.10;;;14.95;;
36475;SDS011;56615;42.682;23.364;2023-02-28T09:54:13;28.90;;;15.15;;
36475;SDS011;56615;42.682;23.364;2023-02-28T09:57:08;27.02;;;14.25;;
36475;SDS011;56615;42.682;23.364;2023-02-28T10:07:47;27.95;;;13.00;;
36475;SDS011;56615;42.682;23.364;2023-02-28T10:12:52;27.37;;;13.30;;
36475;SDS011;56615;42.682;23.364;2023-02-28T10:15:19;29.85;;;12.65;;
36475;SDS011;56615;42.682;23.364;2023-02-28T10:17:47;28.42;;;14.25;;
36475;SDS011;56615;42.682;23.364;2023-02-28T10:20:20;30.02;;;15.00;;
36475;SDS011;56615;42.682;23.364;2023-02-28T10:23:11;25.48;;;12.80;;
36475;SDS011;56615;42.682;23.364;2023-02-28T10:25:59;29.35;;;13.07;;
36475;SDS011;56615;42.682;23.364;2023-02-28T10:28:26;26.52;;;12.57;;
36475;SDS011;56615;42.682;23.364;2023-02-28T10:30:55;26.23;;;12.65;;
36475;SDS011;56615;42.682;23.364;2023-02-28T10:33:27;28.20;;;11.68;;
36475;SDS011;56615;42.682;23.364;2023-02-28T10:35:54;24.45;;;11.20;;
36475;SDS011;56615;42.682;23.364;2023-02-28T10:38:24;30.38;;;11.80;;
36475;SDS011;56615;42.682;23.364;2023-02-28T10:43:38;26.98;;;11.95;;
36475;SDS011;56615;42.682;23.364;2023-02-28T10:46:11;26.40;;;11.80;;
36475;SDS011;56615;42.682;23.364;2023-02-28T10:48:50;24.77;;;11.88;;
36475;SDS011;56615;42.682;23.364;2023-02-28T10:51:24;26.15;;;12.55;;
36475;SDS011;56615;42.682;23.364;2023-02-28T10:53:53;22.45;;;11.32;;
36475;SDS011;56615;42.682;23.364;2023-02-28T10:56:20;32.97;;;12.07;;
36475;SDS011;56615;42.682;23.364;2023-02-28T10:59:00;26.05;;;12.23;;
36475;SDS011;56615;42.682;23.364;2023-02-28T11:04:18;26.67;;;11.75;;
36475;SDS011;56615;42.682;23.364;2023-02-28T11:06:47;25.73;;;12.85;;
36475;SDS011;56615;42.682;23.364;2023-02-28T11:11:48;30.00;;;12.77;;
36475;SDS011;56615;42.682;23.364;2023-02-28T11:14:27;25.85;;;12.13;;
36475;SDS011;56615;42.682;23.364;2023-02-28T11:16:54;22.35;;;11.35;;
36475;SDS011;56615;42.682;23.364;2023-02-28T11:19:27;27.80;;;11.82;;
36475;SDS011;56615;42.682;23.364;2023-02-28T11:21:56;25.25;;;13.43;;
36475;SDS011;56615;42.682;23.364;2023-02-28T11:24:25;25.80;;;13.25;;
36475;SDS011;56615;42.682;23.364;2023-02-28T11:26:53;27.48;;;13.70;;
36475;SDS011;56615;42.682;23.364;2023-02-28T11:34:33;23.35;;;11.65;;
36475;SDS011;56615;42.682;23.364;2023-02-28T11:36:59;27.15;;;12.73;;
36475;SDS011;56615;42.682;23.364;2023-02-28T11:39:26;25.48;;;12.88;;
36475;SDS011;56615;42.682;23.364;2023-02-28T11:41:55;27.13;;;12.98;;
36475;SDS011;56615;42.682;23.364;2023-02-28T11:50:49;28.98;;;14.32;;
36475;SDS011;56615;42.682;23.364;2023-02-28T11:56:43;31.42;;;14.50;;
36475;SDS011;56615;42.682;23.364;2023-02-28T12:10:59;25.85;;;13.45;;
36475;SDS011;56615;42.682;23.364;2023-02-28T12:22:12;27.67;;;14.05;;
36475;SDS011;56615;42.682;23.364;2023-02-28T12:27:39;29.98;;;13.48;;
36475;SDS011;56615;42.682;23.364;2023-02-28T12:30:12;29.17;;;13.85;;
36475;SDS011;56615;42.682;23.364;2023-02-28T12:32:41;26.75;;;13.30;;
36475;SDS011;56615;42.682;23.364;2023-02-28T12:37:39;29.75;;;15.32;;
36475;SDS011;56615;42.682;23.364;2023-02-28T12:40:12;26.95;;;12.63;;
36475;SDS011;56615;42.682;23.364;2023-02-28T12:42:41;27.90;;;12.98;;
36475;SDS011;56615;42.682;23.364;2023-02-28T12:45:10;29.45;;;12.90;;
36475;SDS011;56615;42.682;23.364;2023-02-28T12:47:50;25.65;;;10.82;;
36475;SDS011;56615;42.682;23.364;2023-02-28T12:50:17;22.67;;;10.50;;
36475;SDS011;56615;42.682;23.364;2023-02-28T12:58:26;28.90;;;12.50;;
36475;SDS011;56615;42.682;23.364;2023-02-28T13:01:04;27.50;;;11.05;;
36475;SDS011;56615;42.682;23.364;2023-02-28T13:04:14;33.75;;;12.43;;
36475;SDS011;56615;42.682;23.364;2023-02-28T13:09:30;25.50;;;12.68;;
36475;SDS011;56615;42.682;23.364;2023-02-28T13:11:55;26.10;;;10.63;;
36475;SDS011;56615;42.682;23.364;2023-02-28T13:14:23;35.70;;;16.98;;
36475;SDS011;56615;42.682;23.364;2023-02-28T13:19:32;29.25;;;13.15;;
36475;SDS011;56615;42.682;23.364;2023-02-28T13:21:58;27.13;;;12.68;;
36475;SDS011;56615;42.682;23.364;2023-02-28T13:29:39;33.80;;;13.93;;
36475;SDS011;56615;42.682;23.364;2023-02-28T13:35:34;29.52;;;12.90;;
36475;SDS011;56615;42.682;23.364;2023-02-28T13:39:58;30.60;;;12.30;;
36475;SDS011;56615;42.682;23.364;2023-02-28T13:42:50;24.00;;;11.52;;
36475;SDS011;56615;42.682;23.364;2023-02-28T13:45:22;22.98;;;11.90;;
36475;SDS011;56615;42.682;23.364;2023-02-28T13:48:34;25.65;;;11.75;;
36475;SDS011;56615;42.682;23.364;2023-02-28T13:50:41;24.90;;;11.35;;
36475;SDS011;56615;42.682;23.364;2023-02-28T13:55:43;22.83;;;11.02;;
36475;SDS011;56615;42.682;23.364;2023-02-28T13:58:54;23.52;;;10.07;;
36475;SDS011;56615;42.682;23.364;2023-02-28T14:06:53;26.20;;;11.48;;
36475;SDS011;56615;42.682;23.364;2023-02-28T14:11:49;25.38;;;11.65;;
36475;SDS011;56615;42.682;23.364;2023-02-28T14:16:59;23.23;;;10.50;;
36475;SDS011;56615;42.682;23.364;2023-02-28T14:19:26;23.70;;;11.80;;
36475;SDS011;56615;42.682;23.364;2023-02-28T14:38:33;26.75;;;11.30;;
36475;SDS011;56615;42.682;23.364;2023-02-28T14:41:03;29.55;;;12.95;;
36475;SDS011;56615;42.682;23.364;2023-02-28T14:43:31;24.30;;;11.13;;
36475;SDS011;56615;42.682;23.364;2023-02-28T14:45:58;29.83;;;11.45;;
36475;SDS011;56615;42.682;23.364;2023-02-28T14:48:25;22.02;;;11.23;;
36475;SDS011;56615;42.682;23.364;2023-02-28T14:51:01;28.17;;;11.18;;
36475;SDS011;56615;42.682;23.364;2023-02-28T14:53:30;26.42;;;10.93;;
36475;SDS011;56615;42.682;23.364;2023-02-28T14:56:00;23.67;;;11.38;;
36475;SDS011;56615;42.682;23.364;2023-02-28T14:58:27;22.08;;;10.80;;
36475;SDS011;56615;42.682;23.364;2023-02-28T15:00:55;26.05;;;11.18;;
36475;SDS011;56615;42.682;23.364;2023-02-28T15:03:32;28.10;;;11.23;;
36475;SDS011;56615;42.682;23.364;2023-02-28T15:06:00;24.20;;;10.60;;
36475;SDS011;56615;42.682;23.364;2023-02-28T15:08:27;25.58;;;10.88;;
36475;SDS011;56615;42.682;23.364;2023-02-28T15:13:22;21.92;;;9.48;;
36475;SDS011;56615;42.682;23.364;2023-02-28T15:15:55;25.30;;;9.32;;
36475;SDS011;56615;42.682;23.364;2023-02-28T15:18:28;19.38;;;9.38;;
36475;SDS011;56615;42.682;23.364;2023-02-28T15:23:41;20.38;;;9.88;;
36475;SDS011;56615;42.682;23.364;2023-02-28T15:26:10;22.52;;;10.00;;
36475;SDS011;56615;42.682;23.364;2023-02-28T15:28:39;25.43;;;9.67;;
36475;SDS011;56615;42.682;23.364;2023-02-28T15:31:16;18.90;;;9.30;;
36475;SDS011;56615;42.682;23.364;2023-02-28T15:33:56;22.02;;;10.50;;
36475;SDS011;56615;42.682;23.364;2023-02-28T15:36:24;21.42;;;9.80;;
36475;SDS011;56615;42.682;23.364;2023-02-28T15:38:58;17.88;;;9.63;;
36475;SDS011;56615;42.682;23.364;2023-02-28T15:41:29;20.67;;;10.10;;
36475;SDS011;56615;42.682;23.364;2023-02-28T15:46:42;26.45;;;10.07;;
36475;SDS011;56615;42.682;23.364;2023-02-28T15:49:16;20.85;;;9.65;;
36475;SDS011;56615;42.682;23.364;2023-02-28T15:51:44;22.88;;;10.80;;
36475;SDS011;56615;42.682;23.364;2023-02-28T15:54:14;21.08;;;9.88;;
36475;SDS011;56615;42.682;23.364;2023-02-28T15:56:49;15.38;;;8.65;;
36475;SDS011;56615;42.682;23.364;2023-02-28T15:59:20;21.80;;;10.68;;
36475;SDS011;56615;42.682;23.364;2023-02-28T16:02:01;18.05;;;10.98;;
36475;SDS011;56615;42.682;23.364;2023-02-28T16:07:23;17.45;;;10.27;;
36475;SDS011;56615;42.682;23.364;2023-02-28T16:09:49;24.33;;;12.60;;
36475;SDS011;56615;42.682;23.364;2023-02-28T16:12:15;17.02;;;9.52;;
36475;SDS011;56615;42.682;23.364;2023-02-28T16:14:40;19.73;;;9.55;;
36475;SDS011;56615;42.682;23.364;2023-02-28T16:17:06;16.48;;;9.07;;
36475;SDS011;56615;42.682;23.364;2023-02-28T16:19:36;17.00;;;9.43;;
36475;SDS011;56615;42.682;23.364;2023-02-28T16:22:01;16.90;;;8.68;;
36475;SDS011;56615;42.682;23.364;2023-02-28T16:24:27;14.45;;;8.30;;
36475;SDS011;56615;42.682;23.364;2023-02-28T16:26:53;15.95;;;8.60;;
36475;SDS011;56615;42.682;23.364;2023-02-28T16:29:26;16.90;;;8.00;;
36475;SDS011;56615;42.682;23.364;2023-02-28T16:31:55;16.83;;;8.52;;
36475;SDS011;56615;42.682;23.364;2023-02-28T16:34:21;15.13;;;7.88;;
36475;SDS011;56615;42.682;23.364;2023-02-28T16:36:50;15.98;;;8.57;;
36475;SDS011;56615;42.682;23.364;2023-02-28T16:39:24;15.80;;;8.70;;
36475;SDS011;56615;42.682;23.364;2023-02-28T16:41:50;16.35;;;8.45;;
36475;SDS011;56615;42.682;23.364;2023-02-28T16:44:32;16.35;;;8.57;;
36475;SDS011;56615;42.682;23.364;2023-02-28T16:46:59;19.33;;;8.38;;
36475;SDS011;56615;42.682;23.364;2023-02-28T16:49:25;17.13;;;8.63;;
36475;SDS011;56615;42.682;23.364;2023-02-28T16:51:50;16.38;;;8.07;;
36475;SDS011;56615;42.682;23.364;2023-02-28T16:54:16;15.40;;;8.27;;
36475;SDS011;56615;42.682;23.364;2023-02-28T16:56:43;16.95;;;8.15;;
36475;SDS011;56615;42.682;23.364;2023-02-28T16:59:09;14.32;;;8.10;;
36475;SDS011;56615;42.682;23.364;2023-02-28T17:01:35;14.68;;;7.40;;